LTAT/MLX METAR and TAF weather

Enter ICAO airport designator
Station Type Date Time Source
LTAT METAR 2020/10/20 17:20 UTC NOAA

LTAT 201720Z 03006KT 9999 SCT040 BKN100 18/08 Q1020 NOSIG


Station Type Date Time Source
LTAT Decoded METAR 2020/10/20 17:20 UTC NOAA

Malatya / Erhac, Turkey (LTAT) 38-26N 038-05E 849M
Oct 20, 2020 - 01:20 PM EDT / 2020.10.20 1720 UTC
Wind: from the NNE (030 degrees) at 7 MPH (6 KT):0
Visibility: greater than 7 mile(s):0
Sky conditions: mostly cloudy
Temperature: 64 F (18 C)
Dew Point: 46 F (8 C)
Relative Humidity: 51%
Pressure (altimeter): 30.12 in. Hg (1020 hPa)
ob: LTAT 201720Z 03006KT 9999 SCT040 BKN100 18/08 Q1020 NOSIG
cycle: 17

Station Type Date Time Source
LTAT TAF 2020/10/20 18:03 UTC NOAA

TAF LTAT 201640Z 2018/2118 VRB02KT 9999 SCT040 BKN100
BECMG 2018/2020 CAVOK
BECMG 2109/2111 FEW040 SCT100

Example: see airport list